Vendome Street — A8YI6 — position and weather

sailwx.info

Track history (hours):
 
Tides and Currents Weather Stations Pressure Air Temp Water Temp Dewpoint Dewpoint Depression Visibility Wind Speed Wind Dir Waves Ship Positions

Vendome Street

Last reported at 2016-May-06 06:32 UTC. Time now 2016-May-06 07:24 UTC.
Position S 12°57' W 038°34'.

Length 177 m; draft 11.5 m.

Type: Ship. MMSI: 636015064.

Date/timePositionNaut miles runAvg speedWind from/ knotsBaromVisibWave heightAir tempDewpointWater temp
2016-May-06 06:32S 12°57' W 038°34'0 0.0
2016-May-06 05:29S 12°57' W 038°34'0 0.1
2016-May-06 04:32S 12°57' W 038°34'0 0.0
2016-May-06 03:32S 12°57' W 038°34'0 0.1
2016-May-06 02:32S 12°57' W 038°33'0 0.0
2016-May-06 01:32S 12°57' W 038°33'0 0.2
2016-May-06 00:32S 12°57' W 038°33'0 0.1
2016-May-05 23:32S 12°57' W 038°33'0 0.0
2016-May-05 22:32S 12°57' W 038°33'0 0.0
2016-May-05 21:32S 12°57' W 038°33'0 0.1
2016-May-05 20:29S 12°57' W 038°34'0 0.1
2016-May-05 19:32S 12°57' W 038°34'0 0.2
2016-May-05 18:32S 12°57' W 038°34'0 0.0
2016-May-05 17:26S 12°57' W 038°34'0 0.1
2016-May-05 16:32S 12°57' W 038°34'0 0.1
2016-May-05 15:29S 12°57' W 038°34'0 0.2
2016-May-05 14:33S 12°57' W 038°34'3 3.3
2016-May-05 13:33S 12°54' W 038°33'4 3.7
2016-May-05 12:31S 12°58' W 038°33'0 0.1
2016-May-05 11:32S 12°58' W 038°33'0 0.0
2016-May-05 10:31S 12°58' W 038°33'0 0.0
2016-May-05 09:31S 12°58' W 038°33'0 0.0
2016-May-05 08:31S 12°58' W 038°33'0 0.0
2016-May-05 07:28S 12°58' W 038°33'0 0.2
2016-May-05 06:31S 12°57' W 038°33'0 0.0
2016-May-05 05:31S 12°57' W 038°33'0 0.0
2016-May-05 04:31S 12°57' W 038°33'0 0.0
2016-May-05 03:31S 12°57' W 038°33'0 0.0
2016-May-05 02:31S 12°57' W 038°33'0 0.0
2016-May-05 01:32S 12°57' W 038°33'0 0.0
2016-May-05 00:31S 12°57' W 038°33'0 0.2
2016-May-04 23:32S 12°58' W 038°33'0 0.0
2016-May-04 22:31S 12°58' W 038°33'0 0.0
2016-May-04 21:31S 12°58' W 038°33'0 0.0
2016-May-04 20:31S 12°58' W 038°33'0 0.1
2016-May-04 19:31S 12°58' W 038°33'0 0.2
2016-May-04 18:31S 12°57' W 038°33'0 0.1
2016-May-04 17:32S 12°57' W 038°33'0 0.0
2016-May-04 16:32S 12°57' W 038°33'0 0.0
2016-May-04 15:31S 12°57' W 038°33'0 0.0
2016-May-04 14:28S 12°57' W 038°33'0 0.0
2016-May-04 13:31S 12°57' W 038°33'0 0.0
2016-May-04 12:31S 12°57' W 038°33'0 0.1
2016-May-04 11:31S 12°57' W 038°33'0 0.1
2016-May-04 10:31S 12°58' W 038°33'0 0.0
2016-May-04 09:32S 12°58' W 038°33'0 0.0
2016-May-04 08:32S 12°58' W 038°33'0 0.0
2016-May-04 07:31S 12°58' W 038°33'0 0.1
2016-May-04 06:31S 12°58' W 038°33'0 0.2
2016-May-04 05:31S 12°57' W 038°33'0 0.1
2016-May-04 04:31S 12°57' W 038°33'0 0.0
2016-May-04 03:31S 12°57' W 038°33'0 0.0
2016-May-04 02:31S 12°57' W 038°33'0 0.1
2016-May-04 01:31S 12°57' W 038°34'0 0.1
2016-May-04 00:32S 12°57' W 038°33'0 0.0
2016-May-03 23:32S 12°57' W 038°33'0 0.1
2016-May-03 22:32S 12°58' W 038°33'0 0.1
2016-May-03 21:22S 12°58' W 038°33'0 0.1
2016-May-03 20:32S 12°58' W 038°33'0 0.1
2016-May-03 19:31S 12°58' W 038°33'0 0.0
2016-May-03 18:31S 12°58' W 038°33'0 0.2
2016-May-03 17:32S 12°57' W 038°33'0 0.1
2016-May-03 16:31S 12°57' W 038°33'0 0.0
2016-May-03 15:25S 12°57' W 038°33'0 0.0
2016-May-03 14:28S 12°57' W 038°33'0 0.0
2016-May-03 13:32S 12°57' W 038°33'0 0.0
2016-May-03 12:31S 12°57' W 038°33'0 0.0
2016-May-03 11:04S 12°57' W 038°33'0 0.2
2016-May-03 10:31S 12°57' W 038°33'3 3.0
2016-May-03 09:34S 13°00' W 038°34'6 6.0
2016-May-03 08:34S 13°06' W 038°34'10 9.9
2016-May-03 07:33S 13°07' W 038°24'  
Track history (hours):
 
Tides and Currents Weather Stations Pressure Air Temp Water Temp Dewpoint Dewpoint Depression Visibility Wind Speed Wind Dir Waves Ship Positions

Vendome Street

Last reported at 2016-May-06 06:32 UTC. Time now 2016-May-06 07:24 UTC.
Position S 12°57' W 038°34'.

Length 177 m; draft 11.5 m.

Type: Ship. MMSI: 636015064.

Date/timePositionNaut miles runAvg speedWind from/ knotsBaromVisibWave heightAir tempDewpointWater temp
2016-May-06 06:32S 12°57' W 038°34'0 0.0
2016-May-06 05:29S 12°57' W 038°34'0 0.1
2016-May-06 04:32S 12°57' W 038°34'0 0.0
2016-May-06 03:32S 12°57' W 038°34'0 0.1
2016-May-06 02:32S 12°57' W 038°33'0 0.0
2016-May-06 01:32S 12°57' W 038°33'0 0.2
2016-May-06 00:32S 12°57' W 038°33'0 0.1
2016-May-05 23:32S 12°57' W 038°33'0 0.0
2016-May-05 22:32S 12°57' W 038°33'0 0.0
2016-May-05 21:32S 12°57' W 038°33'0 0.1
2016-May-05 20:29S 12°57' W 038°34'0 0.1
2016-May-05 19:32S 12°57' W 038°34'0 0.2
2016-May-05 18:32S 12°57' W 038°34'0 0.0
2016-May-05 17:26S 12°57' W 038°34'0 0.1
2016-May-05 16:32S 12°57' W 038°34'0 0.1
2016-May-05 15:29S 12°57' W 038°34'0 0.2
2016-May-05 14:33S 12°57' W 038°34'3 3.3
2016-May-05 13:33S 12°54' W 038°33'4 3.7
2016-May-05 12:31S 12°58' W 038°33'0 0.1
2016-May-05 11:32S 12°58' W 038°33'0 0.0
2016-May-05 10:31S 12°58' W 038°33'0 0.0
2016-May-05 09:31S 12°58' W 038°33'0 0.0
2016-May-05 08:31S 12°58' W 038°33'0 0.0
2016-May-05 07:28S 12°58' W 038°33'0 0.2
2016-May-05 06:31S 12°57' W 038°33'0 0.0
2016-May-05 05:31S 12°57' W 038°33'0 0.0
2016-May-05 04:31S 12°57' W 038°33'0 0.0
2016-May-05 03:31S 12°57' W 038°33'0 0.0
2016-May-05 02:31S 12°57' W 038°33'0 0.0
2016-May-05 01:32S 12°57' W 038°33'0 0.0
2016-May-05 00:31S 12°57' W 038°33'0 0.2
2016-May-04 23:32S 12°58' W 038°33'0 0.0
2016-May-04 22:31S 12°58' W 038°33'0 0.0
2016-May-04 21:31S 12°58' W 038°33'0 0.0
2016-May-04 20:31S 12°58' W 038°33'0 0.1
2016-May-04 19:31S 12°58' W 038°33'0 0.2
2016-May-04 18:31S 12°57' W 038°33'0 0.1
2016-May-04 17:32S 12°57' W 038°33'0 0.0
2016-May-04 16:32S 12°57' W 038°33'0 0.0
2016-May-04 15:31S 12°57' W 038°33'0 0.0
2016-May-04 14:28S 12°57' W 038°33'0 0.0
2016-May-04 13:31S 12°57' W 038°33'0 0.0
2016-May-04 12:31S 12°57' W 038°33'0 0.1
2016-May-04 11:31S 12°57' W 038°33'0 0.1
2016-May-04 10:31S 12°58' W 038°33'0 0.0
2016-May-04 09:32S 12°58' W 038°33'0 0.0
2016-May-04 08:32S 12°58' W 038°33'0 0.0
2016-May-04 07:31S 12°58' W 038°33'0 0.1
2016-May-04 06:31S 12°58' W 038°33'0 0.2
2016-May-04 05:31S 12°57' W 038°33'0 0.1
2016-May-04 04:31S 12°57' W 038°33'0 0.0
2016-May-04 03:31S 12°57' W 038°33'0 0.0
2016-May-04 02:31S 12°57' W 038°33'0 0.1
2016-May-04 01:31S 12°57' W 038°34'0 0.1
2016-May-04 00:32S 12°57' W 038°33'0 0.0
2016-May-03 23:32S 12°57' W 038°33'0 0.1
2016-May-03 22:32S 12°58' W 038°33'0 0.1
2016-May-03 21:22S 12°58' W 038°33'0 0.1
2016-May-03 20:32S 12°58' W 038°33'0 0.1
2016-May-03 19:31S 12°58' W 038°33'0 0.0
2016-May-03 18:31S 12°58' W 038°33'0 0.2
2016-May-03 17:32S 12°57' W 038°33'0 0.1
2016-May-03 16:31S 12°57' W 038°33'0 0.0
2016-May-03 15:25S 12°57' W 038°33'0 0.0
2016-May-03 14:28S 12°57' W 038°33'0 0.0
2016-May-03 13:32S 12°57' W 038°33'0 0.0
2016-May-03 12:31S 12°57' W 038°33'0 0.0
2016-May-03 11:04S 12°57' W 038°33'0 0.2
2016-May-03 10:31S 12°57' W 038°33'3 3.0
2016-May-03 09:34S 13°00' W 038°34'6 6.0
2016-May-03 08:34S 13°06' W 038°34'10 9.9
2016-May-03 07:33S 13°07' W 038°24'  

Dump ship's entire track history